Guilford, Connecticut
Current Conditions -  °F | °C
As of 4:53 PM on Thursday 27 Nov 2014 (Local Time) from KHVN Reporting Station
Overcast Overcast  
Wind Chill: 34°   Ceiling: 900
Heat Index: 38°   Visibility: 10mi
Dew Point: 31°   Wind: 5mph
Humidity: 76%   Direction: 340°NNW
Pressure: 29.99"   Gusts: NA
Location:  41.29°N, 72.68°W
Report Text: KHVN 272153Z 34004KT 10SM BKN009 OVC055 03/M01 A2999 RMK AO2 SLP155 T00331006
Loading
Personal Weather Stations






























Interactive Weather Map New forecast layout! Learn more

10-Day Weather Forecast

Advertisements
Track Severe Weather on mobile